sensor_id;sensor_type;location;lat;lon;timestamp;temperature;humidity
2158;DHT22;41972;48.774;9.282;2022-07-30T00:01:58;16.20;99.90
2158;DHT22;41972;48.774;9.282;2022-07-30T00:04:23;16.10;99.90
2158;DHT22;41972;48.774;9.282;2022-07-30T00:06:49;15.90;99.90
2158;DHT22;41972;48.774;9.282;2022-07-30T00:09:15;16.00;99.90
2158;DHT22;41972;48.774;9.282;2022-07-30T00:11:40;16.10;99.90
2158;DHT22;41972;48.774;9.282;2022-07-30T00:14:07;16.00;99.90
2158;DHT22;41972;48.774;9.282;2022-07-30T00:16:33;15.70;99.90
2158;DHT22;41972;48.774;9.282;2022-07-30T00:18:58;15.80;99.90
2158;DHT22;41972;48.774;9.282;2022-07-30T00:21:24;15.70;99.90
2158;DHT22;41972;48.774;9.282;2022-07-30T00:23:49;15.60;99.90
2158;DHT22;41972;48.774;9.282;2022-07-30T00:26:15;15.60;99.90
2158;DHT22;41972;48.774;9.282;2022-07-30T00:28:40;15.80;99.90
2158;DHT22;41972;48.774;9.282;2022-07-30T00:31:06;15.80;99.90
2158;DHT22;41972;48.774;9.282;2022-07-30T00:33:31;15.80;99.90
2158;DHT22;41972;48.774;9.282;2022-07-30T00:35:57;15.80;99.90
2158;DHT22;41972;48.774;9.282;2022-07-30T00:38:23;15.70;99.90
2158;DHT22;41972;48.774;9.282;2022-07-30T00:40:48;15.60;99.90
2158;DHT22;41972;48.774;9.282;2022-07-30T00:43:17;15.50;99.90
2158;DHT22;41972;48.774;9.282;2022-07-30T00:45:43;15.50;99.90
2158;DHT22;41972;48.774;9.282;2022-07-30T00:48:09;15.60;99.90
2158;DHT22;41972;48.774;9.282;2022-07-30T00:50:36;15.70;99.90
2158;DHT22;41972;48.774;9.282;2022-07-30T00:53:04;15.70;99.90
2158;DHT22;41972;48.774;9.282;2022-07-30T00:55:30;15.70;99.90
2158;DHT22;41972;48.774;9.282;2022-07-30T00:57:56;15.80;99.90
2158;DHT22;41972;48.774;9.282;2022-07-30T01:00:23;15.90;99.90
2158;DHT22;41972;48.774;9.282;2022-07-30T01:02:48;15.90;99.90
2158;DHT22;41972;48.774;9.282;2022-07-30T01:05:14;15.90;99.90
2158;DHT22;41972;48.774;9.282;2022-07-30T01:07:40;16.00;99.90
2158;DHT22;41972;48.774;9.282;2022-07-30T01:10:07;16.00;99.90
2158;DHT22;41972;48.774;9.282;2022-07-30T01:12:33;16.10;99.90
2158;DHT22;41972;48.774;9.282;2022-07-30T01:15:00;16.30;99.90
2158;DHT22;41972;48.774;9.282;2022-07-30T01:17:27;16.30;99.90
2158;DHT22;41972;48.774;9.282;2022-07-30T01:19:57;16.60;99.90
2158;DHT22;41972;48.774;9.282;2022-07-30T01:27:31;16.80;99.90
2158;DHT22;41972;48.774;9.282;2022-07-30T01:29:58;16.80;99.90
2158;DHT22;41972;48.774;9.282;2022-07-30T01:32:26;16.70;99.90
2158;DHT22;41972;48.774;9.282;2022-07-30T01:34:54;16.70;99.90
2158;DHT22;41972;48.774;9.282;2022-07-30T01:37:22;16.60;99.90
2158;DHT22;41972;48.774;9.282;2022-07-30T01:39:49;16.40;99.90
2158;DHT22;41972;48.774;9.282;2022-07-30T01:42:16;16.40;99.90
2158;DHT22;41972;48.774;9.282;2022-07-30T01:44:44;16.20;99.90
2158;DHT22;41972;48.774;9.282;2022-07-30T01:47:13;16.20;99.90
2158;DHT22;41972;48.774;9.282;2022-07-30T01:49:39;16.20;99.90
2158;DHT22;41972;48.774;9.282;2022-07-30T01:52:07;16.20;99.90
2158;DHT22;41972;48.774;9.282;2022-07-30T01:54:35;16.20;99.90
2158;DHT22;41972;48.774;9.282;2022-07-30T01:57:02;16.20;99.90
2158;DHT22;41972;48.774;9.282;2022-07-30T01:59:31;16.00;99.90
2158;DHT22;41972;48.774;9.282;2022-07-30T02:01:58;15.90;99.90
2158;DHT22;41972;48.774;9.282;2022-07-30T02:04:23;15.90;99.90
2158;DHT22;41972;48.774;9.282;2022-07-30T02:07:03;15.90;99.90
2158;DHT22;41972;48.774;9.282;2022-07-30T02:09:35;16.10;99.90
2158;DHT22;41972;48.774;9.282;2022-07-30T02:12:03;16.10;99.90
2158;DHT22;41972;48.774;9.282;2022-07-30T02:14:53;15.90;99.90
2158;DHT22;41972;48.774;9.282;2022-07-30T02:17:25;15.70;99.90
2158;DHT22;41972;48.774;9.282;2022-07-30T02:19:54;15.60;99.90
2158;DHT22;41972;48.774;9.282;2022-07-30T02:22:22;15.60;99.90
2158;DHT22;41972;48.774;9.282;2022-07-30T02:24:50;15.60;99.90
2158;DHT22;41972;48.774;9.282;2022-07-30T02:27:32;15.50;99.90
2158;DHT22;41972;48.774;9.282;2022-07-30T02:30:00;15.40;99.90
2158;DHT22;41972;48.774;9.282;2022-07-30T02:32:32;15.30;99.90
2158;DHT22;41972;48.774;9.282;2022-07-30T02:35:02;15.40;99.90
2158;DHT22;41972;48.774;9.282;2022-07-30T02:37:31;15.20;99.90
2158;DHT22;41972;48.774;9.282;2022-07-30T02:39:57;15.10;99.90
2158;DHT22;41972;48.774;9.282;2022-07-30T02:42:24;15.20;99.90
2158;DHT22;41972;48.774;9.282;2022-07-30T02:44:51;15.20;99.90
2158;DHT22;41972;48.774;9.282;2022-07-30T02:47:19;14.90;99.90
2158;DHT22;41972;48.774;9.282;2022-07-30T02:49:47;14.90;99.90
2158;DHT22;41972;48.774;9.282;2022-07-30T02:52:15;14.70;99.90
2158;DHT22;41972;48.774;9.282;2022-07-30T02:54:42;14.80;99.90
2158;DHT22;41972;48.774;9.282;2022-07-30T02:57:09;14.80;99.90
2158;DHT22;41972;48.774;9.282;2022-07-30T02:59:37;14.60;99.90
2158;DHT22;41972;48.774;9.282;2022-07-30T03:02:06;14.60;99.90
2158;DHT22;41972;48.774;9.282;2022-07-30T03:04:35;14.60;99.90
2158;DHT22;41972;48.774;9.282;2022-07-30T03:07:02;14.60;99.90
2158;DHT22;41972;48.774;9.282;2022-07-30T03:09:29;14.60;99.90
2158;DHT22;41972;48.774;9.282;2022-07-30T03:11:55;14.70;99.90
2158;DHT22;41972;48.774;9.282;2022-07-30T03:14:21;14.50;99.90
2158;DHT22;41972;48.774;9.282;2022-07-30T03:16:52;14.40;99.90
2158;DHT22;41972;48.774;9.282;2022-07-30T03:19:21;14.40;99.90
2158;DHT22;41972;48.774;9.282;2022-07-30T03:21:49;14.30;99.90
2158;DHT22;41972;48.774;9.282;2022-07-30T03:24:16;14.20;99.90
2158;DHT22;41972;48.774;9.282;2022-07-30T03:26:43;14.40;99.90
2158;DHT22;41972;48.774;9.282;2022-07-30T03:29:11;14.30;99.90
2158;DHT22;41972;48.774;9.282;2022-07-30T03:31:39;14.30;99.90
2158;DHT22;41972;48.774;9.282;2022-07-30T03:34:06;14.20;99.90
2158;DHT22;41972;48.774;9.282;2022-07-30T03:36:33;14.20;99.90
2158;DHT22;41972;48.774;9.282;2022-07-30T03:39:01;14.10;99.90
2158;DHT22;41972;48.774;9.282;2022-07-30T03:41:27;14.10;99.90
2158;DHT22;41972;48.774;9.282;2022-07-30T03:43:54;14.40;99.90
2158;DHT22;41972;48.774;9.282;2022-07-30T03:46:21;14.20;99.90
2158;DHT22;41972;48.774;9.282;2022-07-30T03:48:47;14.10;99.90
2158;DHT22;41972;48.774;9.282;2022-07-30T03:51:15;14.20;99.90
2158;DHT22;41972;48.774;9.282;2022-07-30T03:53:41;14.10;99.90
2158;DHT22;41972;48.774;9.282;2022-07-30T03:56:08;13.90;99.90
2158;DHT22;41972;48.774;9.282;2022-07-30T03:58:36;14.10;99.90
2158;DHT22;41972;48.774;9.282;2022-07-30T04:01:02;14.00;99.90
2158;DHT22;41972;48.774;9.282;2022-07-30T04:03:32;13.90;99.90
2158;DHT22;41972;48.774;9.282;2022-07-30T04:05:58;14.00;99.90
2158;DHT22;41972;48.774;9.282;2022-07-30T04:08:23;14.10;99.90
2158;DHT22;41972;48.774;9.282;2022-07-30T04:10:50;14.20;99.90
2158;DHT22;41972;48.774;9.282;2022-07-30T04:13:15;14.30;99.90
2158;DHT22;41972;48.774;9.282;2022-07-30T04:16:22;14.30;99.90
2158;DHT22;41972;48.774;9.282;2022-07-30T04:18:53;14.40;99.90
2158;DHT22;41972;48.774;9.282;2022-07-30T04:21:21;14.40;99.90
2158;DHT22;41972;48.774;9.282;2022-07-30T04:23:49;14.50;99.90
2158;DHT22;41972;48.774;9.282;2022-07-30T04:26:16;14.60;99.90
2158;DHT22;41972;48.774;9.282;2022-07-30T04:28:43;14.50;99.90
2158;DHT22;41972;48.774;9.282;2022-07-30T04:31:09;14.50;99.90
2158;DHT22;41972;48.774;9.282;2022-07-30T04:33:35;14.60;99.90
2158;DHT22;41972;48.774;9.282;2022-07-30T04:36:06;14.80;99.90
2158;DHT22;41972;48.774;9.282;2022-07-30T04:38:32;14.90;99.90
2158;DHT22;41972;48.774;9.282;2022-07-30T04:40:58;14.90;99.90
2158;DHT22;41972;48.774;9.282;2022-07-30T04:43:23;15.20;99.90
2158;DHT22;41972;48.774;9.282;2022-07-30T04:45:49;15.60;99.90
2158;DHT22;41972;48.774;9.282;2022-07-30T04:48:14;17.00;99.90
2158;DHT22;41972;48.774;9.282;2022-07-30T04:50:43;18.20;99.90
2158;DHT22;41972;48.774;9.282;2022-07-30T04:53:10;19.00;99.90
2158;DHT22;41972;48.774;9.282;2022-07-30T04:55:39;19.70;99.90
2158;DHT22;41972;48.774;9.282;2022-07-30T04:58:06;20.40;99.90
2158;DHT22;41972;48.774;9.282;2022-07-30T05:00:34;19.90;99.90
2158;DHT22;41972;48.774;9.282;2022-07-30T05:03:01;21.30;99.90
2158;DHT22;41972;48.774;9.282;2022-07-30T05:05:29;20.60;99.90
2158;DHT22;41972;48.774;9.282;2022-07-30T05:07:57;22.70;99.90
2158;DHT22;41972;48.774;9.282;2022-07-30T05:10:24;23.90;99.90
2158;DHT22;41972;48.774;9.282;2022-07-30T05:12:50;25.30;99.90
2158;DHT22;41972;48.774;9.282;2022-07-30T05:15:15;24.50;99.90
2158;DHT22;41972;48.774;9.282;2022-07-30T05:17:41;25.70;99.90
2158;DHT22;41972;48.774;9.282;2022-07-30T05:20:07;25.30;99.90
2158;DHT22;41972;48.774;9.282;2022-07-30T05:22:33;25.30;99.90
2158;DHT22;41972;48.774;9.282;2022-07-30T05:24:59;27.90;99.90
2158;DHT22;41972;48.774;9.282;2022-07-30T05:27:25;27.90;93.80
2158;DHT22;41972;48.774;9.282;2022-07-30T05:29:50;26.40;99.90
2158;DHT22;41972;48.774;9.282;2022-07-30T05:32:16;26.30;98.10
2158;DHT22;41972;48.774;9.282;2022-07-30T05:34:42;23.50;99.90
2158;DHT22;41972;48.774;9.282;2022-07-30T05:37:07;21.90;99.90
2158;DHT22;41972;48.774;9.282;2022-07-30T05:39:33;23.20;99.90
2158;DHT22;41972;48.774;9.282;2022-07-30T05:41:58;21.90;99.90
2158;DHT22;41972;48.774;9.282;2022-07-30T05:44:24;22.20;99.90
2158;DHT22;41972;48.774;9.282;2022-07-30T05:46:50;22.70;99.90
2158;DHT22;41972;48.774;9.282;2022-07-30T05:49:16;23.80;99.90
2158;DHT22;41972;48.774;9.282;2022-07-30T05:51:42;23.70;99.90
2158;DHT22;41972;48.774;9.282;2022-07-30T05:54:07;24.10;99.90
2158;DHT22;41972;48.774;9.282;2022-07-30T05:56:33;24.10;99.90
2158;DHT22;41972;48.774;9.282;2022-07-30T05:59:00;23.50;99.90
2158;DHT22;41972;48.774;9.282;2022-07-30T06:01:26;23.30;99.90
2158;DHT22;41972;48.774;9.282;2022-07-30T06:03:51;23.20;99.90
2158;DHT22;41972;48.774;9.282;2022-07-30T06:06:17;24.00;99.90
2158;DHT22;41972;48.774;9.282;2022-07-30T06:08:43;22.00;99.90
2158;DHT22;41972;48.774;9.282;2022-07-30T06:11:08;21.60;99.90
2158;DHT22;41972;48.774;9.282;2022-07-30T06:13:34;22.00;99.90
2158;DHT22;41972;48.774;9.282;2022-07-30T06:16:00;23.20;99.90
2158;DHT22;41972;48.774;9.282;2022-07-30T06:18:25;24.10;99.90
2158;DHT22;41972;48.774;9.282;2022-07-30T06:20:52;24.30;99.90
2158;DHT22;41972;48.774;9.282;2022-07-30T06:23:19;22.70;99.90
2158;DHT22;41972;48.774;9.282;2022-07-30T06:25:49;22.90;99.90
2158;DHT22;41972;48.774;9.282;2022-07-30T06:28:16;25.30;99.90
2158;DHT22;41972;48.774;9.282;2022-07-30T06:30:42;26.80;97.10
2158;DHT22;41972;48.774;9.282;2022-07-30T06:33:10;27.20;94.00
2158;DHT22;41972;48.774;9.282;2022-07-30T06:35:36;26.80;93.20
2158;DHT22;41972;48.774;9.282;2022-07-30T06:38:02;26.10;95.90
2158;DHT22;41972;48.774;9.282;2022-07-30T06:40:27;25.00;98.80
2158;DHT22;41972;48.774;9.282;2022-07-30T06:42:53;25.70;99.30
2158;DHT22;41972;48.774;9.282;2022-07-30T06:45:18;26.60;99.90
2158;DHT22;41972;48.774;9.282;2022-07-30T06:47:44;28.70;88.20
2158;DHT22;41972;48.774;9.282;2022-07-30T06:50:09;27.70;85.80
2158;DHT22;41972;48.774;9.282;2022-07-30T06:52:35;27.90;87.00
2158;DHT22;41972;48.774;9.282;2022-07-30T06:55:01;27.80;70.80
2158;DHT22;41972;48.774;9.282;2022-07-30T06:57:26;30.10;62.50
2158;DHT22;41972;48.774;9.282;2022-07-30T06:59:52;28.40;50.50
2158;DHT22;41972;48.774;9.282;2022-07-30T07:02:18;26.50;78.20
2158;DHT22;41972;48.774;9.282;2022-07-30T07:04:43;27.10;73.30
2158;DHT22;41972;48.774;9.282;2022-07-30T07:07:09;29.80;59.80
2158;DHT22;41972;48.774;9.282;2022-07-30T07:09:35;31.10;30.10
2158;DHT22;41972;48.774;9.282;2022-07-30T07:12:00;30.50;34.70
2158;DHT22;41972;48.774;9.282;2022-07-30T07:14:26;28.20;32.10
2158;DHT22;41972;48.774;9.282;2022-07-30T07:16:51;28.20;31.70
2158;DHT22;41972;48.774;9.282;2022-07-30T07:19:17;27.00;42.80
2158;DHT22;41972;48.774;9.282;2022-07-30T07:21:43;27.70;46.40
2158;DHT22;41972;48.774;9.282;2022-07-30T07:24:08;29.20;37.50
2158;DHT22;41972;48.774;9.282;2022-07-30T07:26:34;30.20;32.50
2158;DHT22;41972;48.774;9.282;2022-07-30T07:29:00;31.50;20.20
2158;DHT22;41972;48.774;9.282;2022-07-30T07:31:26;29.90;20.50
2158;DHT22;41972;48.774;9.282;2022-07-30T07:33:52;30.00;20.20
2158;DHT22;41972;48.774;9.282;2022-07-30T07:36:20;28.50;22.60
2158;DHT22;41972;48.774;9.282;2022-07-30T07:38:45;27.60;24.20
2158;DHT22;41972;48.774;9.282;2022-07-30T07:41:11;26.80;23.20
2158;DHT22;41972;48.774;9.282;2022-07-30T07:43:37;28.20;23.30
2158;DHT22;41972;48.774;9.282;2022-07-30T07:46:02;27.60;19.70
2158;DHT22;41972;48.774;9.282;2022-07-30T07:48:28;26.00;23.30
2158;DHT22;41972;48.774;9.282;2022-07-30T07:50:54;26.30;26.50
2158;DHT22;41972;48.774;9.282;2022-07-30T07:53:20;27.10;23.80
2158;DHT22;41972;48.774;9.282;2022-07-30T07:55:45;26.70;23.20
2158;DHT22;41972;48.774;9.282;2022-07-30T07:58:11;26.80;24.50
2158;DHT22;41972;48.774;9.282;2022-07-30T08:00:38;28.10;18.80
2158;DHT22;41972;48.774;9.282;2022-07-30T08:03:04;27.50;16.70
2158;DHT22;41972;48.774;9.282;2022-07-30T08:05:30;26.60;19.90
2158;DHT22;41972;48.774;9.282;2022-07-30T08:07:55;28.10;18.70
2158;DHT22;41972;48.774;9.282;2022-07-30T08:10:21;26.80;19.80
2158;DHT22;41972;48.774;9.282;2022-07-30T08:12:46;26.70;21.10
2158;DHT22;41972;48.774;9.282;2022-07-30T08:15:12;27.60;19.60
2158;DHT22;41972;48.774;9.282;2022-07-30T08:17:42;28.60;16.50
2158;DHT22;41972;48.774;9.282;2022-07-30T08:20:09;29.20;13.00
2158;DHT22;41972;48.774;9.282;2022-07-30T08:22:35;29.30;13.50
2158;DHT22;41972;48.774;9.282;2022-07-30T08:25:00;28.00;13.50
2158;DHT22;41972;48.774;9.282;2022-07-30T08:27:26;27.60;16.60
2158;DHT22;41972;48.774;9.282;2022-07-30T08:29:51;27.80;16.80
2158;DHT22;41972;48.774;9.282;2022-07-30T08:32:17;27.80;16.30
2158;DHT22;41972;48.774;9.282;2022-07-30T08:34:42;29.30;9.20
2158;DHT22;41972;48.774;9.282;2022-07-30T08:37:08;29.80;13.70
2158;DHT22;41972;48.774;9.282;2022-07-30T08:39:34;29.90;6.70
2158;DHT22;41972;48.774;9.282;2022-07-30T08:42:01;29.10;6.80
2158;DHT22;41972;48.774;9.282;2022-07-30T08:44:28;29.50;6.10
2158;DHT22;41972;48.774;9.282;2022-07-30T08:46:56;29.20;8.60
2158;DHT22;41972;48.774;9.282;2022-07-30T08:49:23;31.10;4.10
2158;DHT22;41972;48.774;9.282;2022-07-30T08:51:50;29.30;4.60
2158;DHT22;41972;48.774;9.282;2022-07-30T08:54:17;29.80;3.50
2158;DHT22;41972;48.774;9.282;2022-07-30T08:56:43;29.90;3.50
2158;DHT22;41972;48.774;9.282;2022-07-30T08:59:10;27.80;6.00
2158;DHT22;41972;48.774;9.282;2022-07-30T09:01:35;28.90;4.50
2158;DHT22;41972;48.774;9.282;2022-07-30T09:04:01;30.50;6.10
2158;DHT22;41972;48.774;9.282;2022-07-30T09:06:27;32.10;1.00
2158;DHT22;41972;48.774;9.282;2022-07-30T09:08:53;30.50;1.00
2158;DHT22;41972;48.774;9.282;2022-07-30T09:11:19;30.10;1.00
2158;DHT22;41972;48.774;9.282;2022-07-30T09:13:45;30.80;1.00
2158;DHT22;41972;48.774;9.282;2022-07-30T09:16:24;31.50;1.00
2158;DHT22;41972;48.774;9.282;2022-07-30T09:18:52;31.90;1.00
2158;DHT22;41972;48.774;9.282;2022-07-30T09:21:21;31.10;1.00
2158;DHT22;41972;48.774;9.282;2022-07-30T09:26:22;28.60;1.00
2158;DHT22;41972;48.774;9.282;2022-07-30T09:28:48;29.20;1.00
2158;DHT22;41972;48.774;9.282;2022-07-30T09:31:15;28.70;1.00
2158;DHT22;41972;48.774;9.282;2022-07-30T09:33:42;28.50;1.00
2158;DHT22;41972;48.774;9.282;2022-07-30T09:36:10;28.60;1.00
2158;DHT22;41972;48.774;9.282;2022-07-30T09:38:47;29.80;1.00
2158;DHT22;41972;48.774;9.282;2022-07-30T09:41:15;29.80;1.00
2158;DHT22;41972;48.774;9.282;2022-07-30T09:43:47;30.80;1.00
2158;DHT22;41972;48.774;9.282;2022-07-30T09:46:14;32.10;1.00
2158;DHT22;41972;48.774;9.282;2022-07-30T09:48:40;33.80;1.00
2158;DHT22;41972;48.774;9.282;2022-07-30T09:51:06;32.40;1.00
2158;DHT22;41972;48.774;9.282;2022-07-30T09:53:33;31.50;1.00
2158;DHT22;41972;48.774;9.282;2022-07-30T09:55:59;30.80;1.00
2158;DHT22;41972;48.774;9.282;2022-07-30T09:58:37;29.60;1.00
2158;DHT22;41972;48.774;9.282;2022-07-30T10:01:03;28.10;1.00
2158;DHT22;41972;48.774;9.282;2022-07-30T10:03:29;28.70;1.00
2158;DHT22;41972;48.774;9.282;2022-07-30T10:05:57;30.50;1.00
2158;DHT22;41972;48.774;9.282;2022-07-30T10:08:43;32.30;1.00
2158;DHT22;41972;48.774;9.282;2022-07-30T10:11:10;31.70;1.00
2158;DHT22;41972;48.774;9.282;2022-07-30T10:13:37;31.50;1.00
2158;DHT22;41972;48.774;9.282;2022-07-30T10:16:04;31.90;1.00
2158;DHT22;41972;48.774;9.282;2022-07-30T10:18:30;32.30;1.00
2158;DHT22;41972;48.774;9.282;2022-07-30T10:20:56;29.60;1.00
2158;DHT22;41972;48.774;9.282;2022-07-30T10:23:22;29.40;1.00
2158;DHT22;41972;48.774;9.282;2022-07-30T10:25:49;30.20;1.00
2158;DHT22;41972;48.774;9.282;2022-07-30T10:28:16;30.80;1.00
2158;DHT22;41972;48.774;9.282;2022-07-30T10:30:42;31.50;1.00
2158;DHT22;41972;48.774;9.282;2022-07-30T10:33:10;32.10;1.00
2158;DHT22;41972;48.774;9.282;2022-07-30T10:35:36;27.90;1.00
2158;DHT22;41972;48.774;9.282;2022-07-30T10:38:02;27.70;1.00
2158;DHT22;41972;48.774;9.282;2022-07-30T10:40:37;27.90;1.00
2158;DHT22;41972;48.774;9.282;2022-07-30T10:46:11;30.20;1.00
2158;DHT22;41972;48.774;9.282;2022-07-30T10:48:40;30.50;1.00
2158;DHT22;41972;48.774;9.282;2022-07-30T10:51:06;31.50;1.00
2158;DHT22;41972;48.774;9.282;2022-07-30T10:53:42;29.70;1.00
2158;DHT22;41972;48.774;9.282;2022-07-30T10:56:22;27.30;1.00
2158;DHT22;41972;48.774;9.282;2022-07-30T10:59:02;26.60;1.00
2158;DHT22;41972;48.774;9.282;2022-07-30T11:06:42;31.60;1.00
2158;DHT22;41972;48.774;9.282;2022-07-30T11:09:37;30.80;1.00
2158;DHT22;41972;48.774;9.282;2022-07-30T11:12:07;31.10;1.00
2158;DHT22;41972;48.774;9.282;2022-07-30T11:17:15;28.30;1.00
2158;DHT22;41972;48.774;9.282;2022-07-30T11:22:37;27.70;1.00
2158;DHT22;41972;48.774;9.282;2022-07-30T11:27:49;28.20;1.00
2158;DHT22;41972;48.774;9.282;2022-07-30T11:32:51;27.40;1.00
2158;DHT22;41972;48.774;9.282;2022-07-30T11:35:19;27.10;1.00
2158;DHT22;41972;48.774;9.282;2022-07-30T11:38:14;26.50;1.00
2158;DHT22;41972;48.774;9.282;2022-07-30T11:43:25;26.50;1.00
2158;DHT22;41972;48.774;9.282;2022-07-30T11:46:13;26.60;1.00
2158;DHT22;41972;48.774;9.282;2022-07-30T11:51:20;27.10;1.00
2158;DHT22;41972;48.774;9.282;2022-07-30T11:54:05;27.40;1.00
2158;DHT22;41972;48.774;9.282;2022-07-30T11:56:32;27.60;1.00
2158;DHT22;41972;48.774;9.282;2022-07-30T11:59:02;27.30;1.00
2158;DHT22;41972;48.774;9.282;2022-07-30T12:01:28;26.70;1.00
2158;DHT22;41972;48.774;9.282;2022-07-30T12:03:55;26.80;1.00
2158;DHT22;41972;48.774;9.282;2022-07-30T12:06:21;27.30;1.00
2158;DHT22;41972;48.774;9.282;2022-07-30T12:08:51;26.90;1.00
2158;DHT22;41972;48.774;9.282;2022-07-30T12:11:18;27.20;1.00
2158;DHT22;41972;48.774;9.282;2022-07-30T12:13:55;27.50;1.00
2158;DHT22;41972;48.774;9.282;2022-07-30T12:16:21;27.60;1.00
2158;DHT22;41972;48.774;9.282;2022-07-30T12:18:47;27.80;1.00
2158;DHT22;41972;48.774;9.282;2022-07-30T12:21:13;28.00;1.00
2158;DHT22;41972;48.774;9.282;2022-07-30T12:23:41;27.90;1.00
2158;DHT22;41972;48.774;9.282;2022-07-30T12:26:08;27.30;1.00
2158;DHT22;41972;48.774;9.282;2022-07-30T12:28:44;27.50;1.00
2158;DHT22;41972;48.774;9.282;2022-07-30T12:31:14;27.60;1.00
2158;DHT22;41972;48.774;9.282;2022-07-30T12:33:40;27.00;1.00
2158;DHT22;41972;48.774;9.282;2022-07-30T12:36:05;27.30;1.00
2158;DHT22;41972;48.774;9.282;2022-07-30T12:38:43;27.50;1.00
2158;DHT22;41972;48.774;9.282;2022-07-30T12:41:09;27.50;1.00
2158;DHT22;41972;48.774;9.282;2022-07-30T12:43:45;27.50;1.00
2158;DHT22;41972;48.774;9.282;2022-07-30T12:46:16;27.30;1.00
2158;DHT22;41972;48.774;9.282;2022-07-30T12:51:14;27.40;1.00
2158;DHT22;41972;48.774;9.282;2022-07-30T12:53:40;27.00;1.00
2158;DHT22;41972;48.774;9.282;2022-07-30T12:56:13;26.60;1.00
2158;DHT22;41972;48.774;9.282;2022-07-30T12:58:40;26.60;1.00
2158;DHT22;41972;48.774;9.282;2022-07-30T13:01:08;26.90;1.00
2158;DHT22;41972;48.774;9.282;2022-07-30T13:03:34;27.20;1.00
2158;DHT22;41972;48.774;9.282;2022-07-30T13:06:18;27.50;1.00
2158;DHT22;41972;48.774;9.282;2022-07-30T13:08:57;28.00;1.00
2158;DHT22;41972;48.774;9.282;2022-07-30T13:11:46;27.70;1.00
2158;DHT22;41972;48.774;9.282;2022-07-30T13:14:11;27.40;1.00
2158;DHT22;41972;48.774;9.282;2022-07-30T13:16:39;26.70;1.00
2158;DHT22;41972;48.774;9.282;2022-07-30T13:19:07;26.90;1.00
2158;DHT22;41972;48.774;9.282;2022-07-30T13:21:33;27.30;1.00
2158;DHT22;41972;48.774;9.282;2022-07-30T13:23:59;27.40;1.00
2158;DHT22;41972;48.774;9.282;2022-07-30T13:26:27;27.30;1.00
2158;DHT22;41972;48.774;9.282;2022-07-30T13:28:56;27.20;1.00
2158;DHT22;41972;48.774;9.282;2022-07-30T13:31:22;27.50;1.00
2158;DHT22;41972;48.774;9.282;2022-07-30T13:33:47;27.80;1.00
2158;DHT22;41972;48.774;9.282;2022-07-30T13:36:14;27.90;1.00
2158;DHT22;41972;48.774;9.282;2022-07-30T13:38:40;27.60;1.00
2158;DHT22;41972;48.774;9.282;2022-07-30T13:41:06;27.60;1.00
2158;DHT22;41972;48.774;9.282;2022-07-30T13:43:32;27.50;1.00
2158;DHT22;41972;48.774;9.282;2022-07-30T13:45:57;27.70;1.00
2158;DHT22;41972;48.774;9.282;2022-07-30T13:48:23;27.70;1.00
2158;DHT22;41972;48.774;9.282;2022-07-30T13:50:48;28.00;1.00
2158;DHT22;41972;48.774;9.282;2022-07-30T13:53:14;27.60;1.00
2158;DHT22;41972;48.774;9.282;2022-07-30T13:55:40;27.60;1.00
2158;DHT22;41972;48.774;9.282;2022-07-30T13:58:08;27.90;1.00
2158;DHT22;41972;48.774;9.282;2022-07-30T14:00:34;28.00;1.00
2158;DHT22;41972;48.774;9.282;2022-07-30T14:03:03;27.70;1.00
2158;DHT22;41972;48.774;9.282;2022-07-30T14:05:29;28.00;1.00
2158;DHT22;41972;48.774;9.282;2022-07-30T14:07:55;27.60;1.00
2158;DHT22;41972;48.774;9.282;2022-07-30T14:10:21;27.40;1.00
2158;DHT22;41972;48.774;9.282;2022-07-30T14:12:49;27.70;1.00
2158;DHT22;41972;48.774;9.282;2022-07-30T14:15:15;28.00;1.00
2158;DHT22;41972;48.774;9.282;2022-07-30T14:17:40;28.20;1.00
2158;DHT22;41972;48.774;9.282;2022-07-30T14:20:06;28.00;1.00
2158;DHT22;41972;48.774;9.282;2022-07-30T14:22:32;28.30;1.00
2158;DHT22;41972;48.774;9.282;2022-07-30T14:24:58;27.90;1.00
2158;DHT22;41972;48.774;9.282;2022-07-30T14:27:24;27.70;1.00
2158;DHT22;41972;48.774;9.282;2022-07-30T14:29:50;27.60;1.00
2158;DHT22;41972;48.774;9.282;2022-07-30T14:32:16;27.00;1.00
2158;DHT22;41972;48.774;9.282;2022-07-30T14:34:41;27.10;1.00
2158;DHT22;41972;48.774;9.282;2022-07-30T14:37:07;27.20;1.00
2158;DHT22;41972;48.774;9.282;2022-07-30T14:39:33;27.40;1.00
2158;DHT22;41972;48.774;9.282;2022-07-30T14:41:58;27.10;1.00
2158;DHT22;41972;48.774;9.282;2022-07-30T14:44:24;27.30;1.00
2158;DHT22;41972;48.774;9.282;2022-07-30T14:46:49;27.40;1.00
2158;DHT22;41972;48.774;9.282;2022-07-30T14:49:15;27.50;1.00
2158;DHT22;41972;48.774;9.282;2022-07-30T14:51:41;27.70;1.00
2158;DHT22;41972;48.774;9.282;2022-07-30T14:54:06;27.70;1.00
2158;DHT22;41972;48.774;9.282;2022-07-30T14:56:32;27.90;1.00
2158;DHT22;41972;48.774;9.282;2022-07-30T14:58:58;28.20;1.00
2158;DHT22;41972;48.774;9.282;2022-07-30T15:01:24;28.20;1.00
2158;DHT22;41972;48.774;9.282;2022-07-30T15:03:49;28.30;1.00
2158;DHT22;41972;48.774;9.282;2022-07-30T15:06:15;28.00;1.00
2158;DHT22;41972;48.774;9.282;2022-07-30T15:08:41;28.20;1.00
2158;DHT22;41972;48.774;9.282;2022-07-30T15:11:07;28.50;1.00
2158;DHT22;41972;48.774;9.282;2022-07-30T15:13:33;28.00;1.00
2158;DHT22;41972;48.774;9.282;2022-07-30T15:15:59;27.90;1.00
2158;DHT22;41972;48.774;9.282;2022-07-30T15:18:24;28.00;1.00
2158;DHT22;41972;48.774;9.282;2022-07-30T15:20:52;28.20;1.00
2158;DHT22;41972;48.774;9.282;2022-07-30T15:23:17;28.40;1.00
2158;DHT22;41972;48.774;9.282;2022-07-30T15:25:45;28.70;1.00
2158;DHT22;41972;48.774;9.282;2022-07-30T15:28:13;28.10;1.00
2158;DHT22;41972;48.774;9.282;2022-07-30T15:30:38;28.10;1.00
2158;DHT22;41972;48.774;9.282;2022-07-30T15:33:04;28.30;1.00
2158;DHT22;41972;48.774;9.282;2022-07-30T15:35:29;28.40;1.00
2158;DHT22;41972;48.774;9.282;2022-07-30T15:37:58;28.00;1.00
2158;DHT22;41972;48.774;9.282;2022-07-30T15:40:23;27.80;1.00
2158;DHT22;41972;48.774;9.282;2022-07-30T15:42:50;27.90;1.00
2158;DHT22;41972;48.774;9.282;2022-07-30T15:45:15;28.10;1.00
2158;DHT22;41972;48.774;9.282;2022-07-30T15:47:41;28.20;1.00
2158;DHT22;41972;48.774;9.282;2022-07-30T15:50:07;28.20;1.00
2158;DHT22;41972;48.774;9.282;2022-07-30T15:52:34;27.90;1.00
2158;DHT22;41972;48.774;9.282;2022-07-30T15:55:04;27.70;1.00
2158;DHT22;41972;48.774;9.282;2022-07-30T15:57:30;27.90;1.00
2158;DHT22;41972;48.774;9.282;2022-07-30T15:59:56;27.60;1.00
2158;DHT22;41972;48.774;9.282;2022-07-30T16:02:22;27.50;1.00
2158;DHT22;41972;48.774;9.282;2022-07-30T16:04:48;27.60;1.00
2158;DHT22;41972;48.774;9.282;2022-07-30T16:07:13;27.50;1.00
2158;DHT22;41972;48.774;9.282;2022-07-30T16:09:39;27.40;1.00
2158;DHT22;41972;48.774;9.282;2022-07-30T16:12:05;27.10;1.00
2158;DHT22;41972;48.774;9.282;2022-07-30T16:14:32;27.00;1.00
2158;DHT22;41972;48.774;9.282;2022-07-30T16:16:57;26.90;1.00
2158;DHT22;41972;48.774;9.282;2022-07-30T16:19:23;26.80;1.00
2158;DHT22;41972;48.774;9.282;2022-07-30T16:21:49;26.60;1.00
2158;DHT22;41972;48.774;9.282;2022-07-30T16:24:14;26.60;1.00
2158;DHT22;41972;48.774;9.282;2022-07-30T16:26:40;26.70;1.00
2158;DHT22;41972;48.774;9.282;2022-07-30T16:29:05;26.70;1.00